sensor_id;sensor_type;location;lat;lon;timestamp;P1;durP1;ratioP1;P2;durP2;ratioP2
48207;SDS011;33997;53.278;9.708;2022-08-19T00:00:01;9.15;;;5.00;;
48207;SDS011;33997;53.278;9.708;2022-08-19T00:02:34;9.45;;;5.47;;
48207;SDS011;33997;53.278;9.708;2022-08-19T00:05:00;8.07;;;5.20;;
48207;SDS011;33997;53.278;9.708;2022-08-19T00:07:26;8.20;;;5.00;;
48207;SDS011;33997;53.278;9.708;2022-08-19T00:09:51;12.00;;;4.80;;
48207;SDS011;33997;53.278;9.708;2022-08-19T00:12:17;7.72;;;5.00;;
48207;SDS011;33997;53.278;9.708;2022-08-19T00:14:43;8.30;;;4.75;;
48207;SDS011;33997;53.278;9.708;2022-08-19T00:17:08;7.10;;;4.80;;
48207;SDS011;33997;53.278;9.708;2022-08-19T00:19:34;6.03;;;4.43;;
48207;SDS011;33997;53.278;9.708;2022-08-19T00:22:02;7.82;;;4.07;;
48207;SDS011;33997;53.278;9.708;2022-08-19T00:24:28;9.70;;;4.45;;
48207;SDS011;33997;53.278;9.708;2022-08-19T00:26:54;7.95;;;4.55;;
48207;SDS011;33997;53.278;9.708;2022-08-19T00:29:21;7.85;;;4.32;;
48207;SDS011;33997;53.278;9.708;2022-08-19T00:31:48;8.30;;;4.32;;
48207;SDS011;33997;53.278;9.708;2022-08-19T00:34:15;7.40;;;3.92;;
48207;SDS011;33997;53.278;9.708;2022-08-19T00:36:41;7.13;;;4.10;;
48207;SDS011;33997;53.278;9.708;2022-08-19T00:39:07;7.80;;;4.75;;
48207;SDS011;33997;53.278;9.708;2022-08-19T00:41:33;7.07;;;4.15;;
48207;SDS011;33997;53.278;9.708;2022-08-19T00:43:59;8.43;;;4.70;;
48207;SDS011;33997;53.278;9.708;2022-08-19T00:46:28;6.78;;;4.47;;
48207;SDS011;33997;53.278;9.708;2022-08-19T00:48:54;7.07;;;3.97;;
48207;SDS011;33997;53.278;9.708;2022-08-19T00:51:22;8.82;;;4.20;;
48207;SDS011;33997;53.278;9.708;2022-08-19T00:53:51;6.40;;;3.80;;
48207;SDS011;33997;53.278;9.708;2022-08-19T00:56:19;6.95;;;4.35;;
48207;SDS011;33997;53.278;9.708;2022-08-19T00:58:44;7.55;;;4.30;;
48207;SDS011;33997;53.278;9.708;2022-08-19T01:01:10;6.15;;;4.22;;
48207;SDS011;33997;53.278;9.708;2022-08-19T01:03:35;10.07;;;3.80;;
48207;SDS011;33997;53.278;9.708;2022-08-19T01:06:01;9.50;;;4.10;;
48207;SDS011;33997;53.278;9.708;2022-08-19T01:08:27;6.43;;;3.92;;
48207;SDS011;33997;53.278;9.708;2022-08-19T01:10:56;7.75;;;4.18;;
48207;SDS011;33997;53.278;9.708;2022-08-19T01:15:55;6.07;;;3.58;;
48207;SDS011;33997;53.278;9.708;2022-08-19T01:18:25;8.32;;;4.25;;
48207;SDS011;33997;53.278;9.708;2022-08-19T01:20:53;7.80;;;4.82;;
48207;SDS011;33997;53.278;9.708;2022-08-19T01:23:21;8.38;;;4.60;;
48207;SDS011;33997;53.278;9.708;2022-08-19T01:26:06;9.68;;;4.47;;
48207;SDS011;33997;53.278;9.708;2022-08-19T01:28:32;7.28;;;4.43;;
48207;SDS011;33997;53.278;9.708;2022-08-19T01:30:58;8.27;;;4.50;;
48207;SDS011;33997;53.278;9.708;2022-08-19T01:33:23;7.38;;;4.95;;
48207;SDS011;33997;53.278;9.708;2022-08-19T01:35:49;8.05;;;5.22;;
48207;SDS011;33997;53.278;9.708;2022-08-19T01:38:23;8.27;;;5.35;;
48207;SDS011;33997;53.278;9.708;2022-08-19T01:40:51;8.95;;;5.15;;
48207;SDS011;33997;53.278;9.708;2022-08-19T01:43:17;10.77;;;5.50;;
48207;SDS011;33997;53.278;9.708;2022-08-19T01:45:43;7.68;;;4.95;;
48207;SDS011;33997;53.278;9.708;2022-08-19T01:48:09;9.02;;;5.13;;
48207;SDS011;33997;53.278;9.708;2022-08-19T01:50:35;8.00;;;5.10;;
48207;SDS011;33997;53.278;9.708;2022-08-19T01:53:02;9.70;;;5.20;;
48207;SDS011;33997;53.278;9.708;2022-08-19T01:55:31;9.02;;;5.07;;
48207;SDS011;33997;53.278;9.708;2022-08-19T01:57:57;9.90;;;5.05;;
48207;SDS011;33997;53.278;9.708;2022-08-19T02:00:26;11.52;;;5.72;;
48207;SDS011;33997;53.278;9.708;2022-08-19T02:02:54;7.72;;;5.07;;
48207;SDS011;33997;53.278;9.708;2022-08-19T02:05:20;10.13;;;5.30;;
48207;SDS011;33997;53.278;9.708;2022-08-19T02:07:46;8.88;;;4.80;;
48207;SDS011;33997;53.278;9.708;2022-08-19T02:10:14;8.32;;;4.82;;
48207;SDS011;33997;53.278;9.708;2022-08-19T02:12:42;8.38;;;4.70;;
48207;SDS011;33997;53.278;9.708;2022-08-19T02:15:08;8.75;;;5.35;;
48207;SDS011;33997;53.278;9.708;2022-08-19T02:17:34;8.50;;;4.97;;
48207;SDS011;33997;53.278;9.708;2022-08-19T02:19:59;11.30;;;5.07;;
48207;SDS011;33997;53.278;9.708;2022-08-19T02:22:26;10.40;;;4.95;;
48207;SDS011;33997;53.278;9.708;2022-08-19T02:24:52;8.80;;;5.07;;
48207;SDS011;33997;53.278;9.708;2022-08-19T02:27:18;9.35;;;5.07;;
48207;SDS011;33997;53.278;9.708;2022-08-19T02:29:45;7.82;;;4.85;;
48207;SDS011;33997;53.278;9.708;2022-08-19T02:32:11;9.27;;;5.50;;
48207;SDS011;33997;53.278;9.708;2022-08-19T02:34:38;12.35;;;5.00;;
48207;SDS011;33997;53.278;9.708;2022-08-19T02:37:04;7.32;;;4.72;;
48207;SDS011;33997;53.278;9.708;2022-08-19T02:39:29;7.22;;;4.80;;
48207;SDS011;33997;53.278;9.708;2022-08-19T02:41:55;10.25;;;5.47;;
48207;SDS011;33997;53.278;9.708;2022-08-19T02:44:21;8.27;;;4.65;;
48207;SDS011;33997;53.278;9.708;2022-08-19T02:46:46;8.43;;;5.03;;
48207;SDS011;33997;53.278;9.708;2022-08-19T02:49:13;8.93;;;5.38;;
48207;SDS011;33997;53.278;9.708;2022-08-19T02:51:41;8.18;;;5.32;;
48207;SDS011;33997;53.278;9.708;2022-08-19T02:54:10;9.05;;;5.38;;
48207;SDS011;33997;53.278;9.708;2022-08-19T02:56:38;9.50;;;5.40;;
48207;SDS011;33997;53.278;9.708;2022-08-19T02:59:05;10.50;;;4.97;;
48207;SDS011;33997;53.278;9.708;2022-08-19T03:01:36;8.70;;;5.65;;
48207;SDS011;33997;53.278;9.708;2022-08-19T03:04:04;9.00;;;4.97;;
48207;SDS011;33997;53.278;9.708;2022-08-19T03:06:31;9.68;;;5.38;;
48207;SDS011;33997;53.278;9.708;2022-08-19T03:08:57;10.02;;;5.55;;
48207;SDS011;33997;53.278;9.708;2022-08-19T03:11:24;8.85;;;5.28;;
48207;SDS011;33997;53.278;9.708;2022-08-19T03:13:52;10.45;;;5.78;;
48207;SDS011;33997;53.278;9.708;2022-08-19T03:16:19;9.60;;;4.95;;
48207;SDS011;33997;53.278;9.708;2022-08-19T03:18:46;9.70;;;5.45;;
48207;SDS011;33997;53.278;9.708;2022-08-19T03:21:15;8.80;;;5.00;;
48207;SDS011;33997;53.278;9.708;2022-08-19T03:23:46;9.52;;;5.60;;
48207;SDS011;33997;53.278;9.708;2022-08-19T03:26:11;10.73;;;5.32;;
48207;SDS011;33997;53.278;9.708;2022-08-19T03:28:39;9.98;;;5.05;;
48207;SDS011;33997;53.278;9.708;2022-08-19T03:31:06;8.35;;;5.28;;
48207;SDS011;33997;53.278;9.708;2022-08-19T03:33:35;13.93;;;6.07;;
48207;SDS011;33997;53.278;9.708;2022-08-19T03:36:02;12.45;;;5.70;;
48207;SDS011;33997;53.278;9.708;2022-08-19T03:38:36;10.50;;;5.82;;
48207;SDS011;33997;53.278;9.708;2022-08-19T03:41:15;8.85;;;6.05;;
48207;SDS011;33997;53.278;9.708;2022-08-19T03:43:44;11.57;;;5.45;;
48207;SDS011;33997;53.278;9.708;2022-08-19T03:46:17;9.60;;;5.28;;
48207;SDS011;33997;53.278;9.708;2022-08-19T03:48:48;11.45;;;5.80;;
48207;SDS011;33997;53.278;9.708;2022-08-19T03:53:58;11.02;;;6.00;;
48207;SDS011;33997;53.278;9.708;2022-08-19T03:56:25;14.55;;;7.00;;
48207;SDS011;33997;53.278;9.708;2022-08-19T03:58:52;12.70;;;6.13;;
48207;SDS011;33997;53.278;9.708;2022-08-19T04:01:21;16.02;;;7.00;;
48207;SDS011;33997;53.278;9.708;2022-08-19T04:03:48;16.27;;;7.53;;
48207;SDS011;33997;53.278;9.708;2022-08-19T04:06:18;13.18;;;6.72;;
48207;SDS011;33997;53.278;9.708;2022-08-19T04:08:48;8.70;;;6.10;;
48207;SDS011;33997;53.278;9.708;2022-08-19T04:13:49;12.27;;;6.30;;
48207;SDS011;33997;53.278;9.708;2022-08-19T04:16:16;15.38;;;6.60;;
48207;SDS011;33997;53.278;9.708;2022-08-19T04:18:42;12.77;;;6.40;;
48207;SDS011;33997;53.278;9.708;2022-08-19T04:21:08;15.63;;;7.32;;
48207;SDS011;33997;53.278;9.708;2022-08-19T04:23:45;12.35;;;6.47;;
48207;SDS011;33997;53.278;9.708;2022-08-19T04:26:15;14.20;;;7.47;;
48207;SDS011;33997;53.278;9.708;2022-08-19T04:28:43;11.55;;;7.10;;
48207;SDS011;33997;53.278;9.708;2022-08-19T04:31:13;12.15;;;7.10;;
48207;SDS011;33997;53.278;9.708;2022-08-19T04:33:40;11.48;;;6.88;;
48207;SDS011;33997;53.278;9.708;2022-08-19T04:36:06;11.73;;;7.38;;
48207;SDS011;33997;53.278;9.708;2022-08-19T04:38:32;15.20;;;6.63;;
48207;SDS011;33997;53.278;9.708;2022-08-19T04:40:58;17.02;;;6.90;;
48207;SDS011;33997;53.278;9.708;2022-08-19T04:43:43;12.13;;;6.25;;
48207;SDS011;33997;53.278;9.708;2022-08-19T04:46:12;11.88;;;6.47;;
48207;SDS011;33997;53.278;9.708;2022-08-19T04:48:38;12.75;;;6.63;;
48207;SDS011;33997;53.278;9.708;2022-08-19T04:51:09;10.30;;;6.22;;
48207;SDS011;33997;53.278;9.708;2022-08-19T04:53:36;12.30;;;6.00;;
48207;SDS011;33997;53.278;9.708;2022-08-19T04:56:10;11.30;;;6.28;;
48207;SDS011;33997;53.278;9.708;2022-08-19T04:58:42;14.15;;;5.97;;
48207;SDS011;33997;53.278;9.708;2022-08-19T05:01:11;9.13;;;5.82;;
48207;SDS011;33997;53.278;9.708;2022-08-19T05:03:38;8.25;;;5.82;;
48207;SDS011;33997;53.278;9.708;2022-08-19T05:06:08;11.50;;;5.85;;
48207;SDS011;33997;53.278;9.708;2022-08-19T05:11:06;7.75;;;5.03;;
48207;SDS011;33997;53.278;9.708;2022-08-19T05:13:34;9.27;;;5.28;;
48207;SDS011;33997;53.278;9.708;2022-08-19T05:15:59;12.07;;;5.95;;
48207;SDS011;33997;53.278;9.708;2022-08-19T05:18:25;8.52;;;5.32;;
48207;SDS011;33997;53.278;9.708;2022-08-19T05:21:11;8.52;;;5.30;;
48207;SDS011;33997;53.278;9.708;2022-08-19T05:23:56;9.45;;;5.72;;
48207;SDS011;33997;53.278;9.708;2022-08-19T05:26:22;10.50;;;5.55;;
48207;SDS011;33997;53.278;9.708;2022-08-19T05:28:50;8.15;;;5.35;;
48207;SDS011;33997;53.278;9.708;2022-08-19T05:31:16;9.32;;;5.32;;
48207;SDS011;33997;53.278;9.708;2022-08-19T05:33:42;10.95;;;5.72;;
48207;SDS011;33997;53.278;9.708;2022-08-19T05:36:07;6.88;;;5.05;;
48207;SDS011;33997;53.278;9.708;2022-08-19T05:38:33;11.77;;;4.90;;
48207;SDS011;33997;53.278;9.708;2022-08-19T05:41:00;7.25;;;5.20;;
48207;SDS011;33997;53.278;9.708;2022-08-19T05:43:36;9.65;;;5.85;;
48207;SDS011;33997;53.278;9.708;2022-08-19T05:46:04;12.77;;;5.78;;
48207;SDS011;33997;53.278;9.708;2022-08-19T05:48:31;7.90;;;5.30;;
48207;SDS011;33997;53.278;9.708;2022-08-19T05:51:03;10.73;;;6.38;;
48207;SDS011;33997;53.278;9.708;2022-08-19T05:53:31;10.95;;;6.45;;
48207;SDS011;33997;53.278;9.708;2022-08-19T05:56:02;13.82;;;6.95;;
48207;SDS011;33997;53.278;9.708;2022-08-19T05:58:33;12.93;;;7.00;;
48207;SDS011;33997;53.278;9.708;2022-08-19T06:00:59;11.45;;;6.88;;
48207;SDS011;33997;53.278;9.708;2022-08-19T06:03:29;10.50;;;6.22;;
48207;SDS011;33997;53.278;9.708;2022-08-19T06:05:56;12.50;;;6.53;;
48207;SDS011;33997;53.278;9.708;2022-08-19T06:08:24;9.27;;;6.13;;
48207;SDS011;33997;53.278;9.708;2022-08-19T06:10:50;12.65;;;6.32;;
48207;SDS011;33997;53.278;9.708;2022-08-19T06:13:16;10.77;;;6.10;;
48207;SDS011;33997;53.278;9.708;2022-08-19T06:15:42;10.93;;;6.50;;
48207;SDS011;33997;53.278;9.708;2022-08-19T06:18:09;10.20;;;5.57;;
48207;SDS011;33997;53.278;9.708;2022-08-19T06:20:34;9.90;;;6.45;;
48207;SDS011;33997;53.278;9.708;2022-08-19T06:22:59;11.68;;;6.80;;
48207;SDS011;33997;53.278;9.708;2022-08-19T06:25:25;10.50;;;6.15;;
48207;SDS011;33997;53.278;9.708;2022-08-19T06:27:51;12.75;;;7.07;;
48207;SDS011;33997;53.278;9.708;2022-08-19T06:30:16;10.07;;;7.30;;
48207;SDS011;33997;53.278;9.708;2022-08-19T06:32:42;15.93;;;8.60;;
48207;SDS011;33997;53.278;9.708;2022-08-19T06:35:07;15.43;;;8.73;;
48207;SDS011;33997;53.278;9.708;2022-08-19T06:37:33;14.60;;;8.77;;
48207;SDS011;33997;53.278;9.708;2022-08-19T06:39:59;15.45;;;9.38;;
48207;SDS011;33997;53.278;9.708;2022-08-19T06:42:24;13.93;;;8.85;;
48207;SDS011;33997;53.278;9.708;2022-08-19T06:44:50;12.98;;;9.40;;
48207;SDS011;33997;53.278;9.708;2022-08-19T06:47:17;14.90;;;9.80;;
48207;SDS011;33997;53.278;9.708;2022-08-19T06:49:44;14.68;;;9.50;;
48207;SDS011;33997;53.278;9.708;2022-08-19T06:52:10;19.73;;;9.75;;
48207;SDS011;33997;53.278;9.708;2022-08-19T06:54:40;19.17;;;9.65;;
48207;SDS011;33997;53.278;9.708;2022-08-19T06:57:07;14.13;;;9.40;;
48207;SDS011;33997;53.278;9.708;2022-08-19T07:02:04;15.88;;;10.43;;
48207;SDS011;33997;53.278;9.708;2022-08-19T07:04:32;16.80;;;10.13;;
48207;SDS011;33997;53.278;9.708;2022-08-19T07:07:03;15.38;;;10.15;;
48207;SDS011;33997;53.278;9.708;2022-08-19T07:09:32;19.50;;;10.40;;
48207;SDS011;33997;53.278;9.708;2022-08-19T07:11:57;20.25;;;10.23;;
48207;SDS011;33997;53.278;9.708;2022-08-19T07:14:24;15.68;;;9.88;;
48207;SDS011;33997;53.278;9.708;2022-08-19T07:16:52;22.38;;;11.40;;
48207;SDS011;33997;53.278;9.708;2022-08-19T07:19:20;18.35;;;10.40;;
48207;SDS011;33997;53.278;9.708;2022-08-19T07:21:50;18.45;;;9.98;;
48207;SDS011;33997;53.278;9.708;2022-08-19T07:26:43;18.60;;;10.45;;
48207;SDS011;33997;53.278;9.708;2022-08-19T07:29:10;17.20;;;9.95;;
48207;SDS011;33997;53.278;9.708;2022-08-19T07:31:36;17.67;;;10.10;;
48207;SDS011;33997;53.278;9.708;2022-08-19T07:34:06;17.65;;;9.70;;
48207;SDS011;33997;53.278;9.708;2022-08-19T07:36:36;17.83;;;10.38;;
48207;SDS011;33997;53.278;9.708;2022-08-19T07:39:05;14.43;;;10.55;;
48207;SDS011;33997;53.278;9.708;2022-08-19T07:41:34;16.27;;;10.27;;
48207;SDS011;33997;53.278;9.708;2022-08-19T07:44:02;13.85;;;9.85;;
48207;SDS011;33997;53.278;9.708;2022-08-19T07:46:36;16.73;;;9.55;;
48207;SDS011;33997;53.278;9.708;2022-08-19T07:49:05;15.73;;;10.43;;
48207;SDS011;33997;53.278;9.708;2022-08-19T07:51:32;16.48;;;10.90;;
48207;SDS011;33997;53.278;9.708;2022-08-19T07:53:58;19.48;;;10.52;;
48207;SDS011;33997;53.278;9.708;2022-08-19T07:56:24;16.23;;;10.60;;
48207;SDS011;33997;53.278;9.708;2022-08-19T07:58:50;16.02;;;10.70;;
48207;SDS011;33997;53.278;9.708;2022-08-19T08:01:19;21.23;;;11.60;;
48207;SDS011;33997;53.278;9.708;2022-08-19T08:03:49;18.60;;;12.40;;
48207;SDS011;33997;53.278;9.708;2022-08-19T08:06:35;20.10;;;11.38;;
48207;SDS011;33997;53.278;9.708;2022-08-19T08:09:22;18.98;;;11.73;;
48207;SDS011;33997;53.278;9.708;2022-08-19T08:11:57;19.17;;;12.68;;
48207;SDS011;33997;53.278;9.708;2022-08-19T08:14:27;21.55;;;12.10;;
48207;SDS011;33997;53.278;9.708;2022-08-19T08:16:55;22.60;;;13.55;;
48207;SDS011;33997;53.278;9.708;2022-08-19T08:19:22;20.45;;;12.70;;
48207;SDS011;33997;53.278;9.708;2022-08-19T08:21:49;20.25;;;12.82;;
48207;SDS011;33997;53.278;9.708;2022-08-19T08:24:15;15.80;;;11.38;;
48207;SDS011;33997;53.278;9.708;2022-08-19T08:26:41;18.33;;;12.68;;
48207;SDS011;33997;53.278;9.708;2022-08-19T08:29:08;18.08;;;11.32;;
48207;SDS011;33997;53.278;9.708;2022-08-19T08:31:38;16.15;;;11.00;;
48207;SDS011;33997;53.278;9.708;2022-08-19T08:34:05;16.63;;;11.80;;
48207;SDS011;33997;53.278;9.708;2022-08-19T08:36:31;15.13;;;9.90;;
48207;SDS011;33997;53.278;9.708;2022-08-19T08:38:58;17.20;;;10.70;;
48207;SDS011;33997;53.278;9.708;2022-08-19T08:44:39;19.60;;;11.27;;
48207;SDS011;33997;53.278;9.708;2022-08-19T08:47:13;19.08;;;10.43;;
48207;SDS011;33997;53.278;9.708;2022-08-19T08:50:03;15.77;;;10.43;;
48207;SDS011;33997;53.278;9.708;2022-08-19T08:52:36;14.93;;;10.18;;
48207;SDS011;33997;53.278;9.708;2022-08-19T08:55:08;17.38;;;10.50;;
48207;SDS011;33997;53.278;9.708;2022-08-19T09:02:51;14.82;;;9.82;;
48207;SDS011;33997;53.278;9.708;2022-08-19T09:05:18;17.95;;;10.85;;
48207;SDS011;33997;53.278;9.708;2022-08-19T09:07:50;19.95;;;10.77;;
48207;SDS011;33997;53.278;9.708;2022-08-19T09:10:34;16.77;;;10.75;;
48207;SDS011;33997;53.278;9.708;2022-08-19T09:13:07;14.63;;;10.00;;
48207;SDS011;33997;53.278;9.708;2022-08-19T09:16:18;17.33;;;11.43;;
48207;SDS011;33997;53.278;9.708;2022-08-19T09:18:50;15.30;;;10.50;;
48207;SDS011;33997;53.278;9.708;2022-08-19T09:21:20;16.58;;;10.40;;
48207;SDS011;33997;53.278;9.708;2022-08-19T09:23:50;15.18;;;9.63;;
48207;SDS011;33997;53.278;9.708;2022-08-19T09:26:17;15.80;;;9.60;;
48207;SDS011;33997;53.278;9.708;2022-08-19T09:28:45;12.68;;;9.10;;
48207;SDS011;33997;53.278;9.708;2022-08-19T09:31:13;12.75;;;9.43;;
48207;SDS011;33997;53.278;9.708;2022-08-19T09:33:40;14.68;;;9.48;;
48207;SDS011;33997;53.278;9.708;2022-08-19T09:36:09;11.88;;;8.15;;
48207;SDS011;33997;53.278;9.708;2022-08-19T09:38:37;15.05;;;9.20;;
48207;SDS011;33997;53.278;9.708;2022-08-19T09:41:07;12.75;;;8.25;;
48207;SDS011;33997;53.278;9.708;2022-08-19T09:43:36;14.00;;;7.80;;
48207;SDS011;33997;53.278;9.708;2022-08-19T09:46:02;13.82;;;8.27;;
48207;SDS011;33997;53.278;9.708;2022-08-19T09:48:31;12.68;;;7.75;;
48207;SDS011;33997;53.278;9.708;2022-08-19T09:51:19;11.75;;;8.75;;
48207;SDS011;33997;53.278;9.708;2022-08-19T09:53:47;10.82;;;7.22;;
48207;SDS011;33997;53.278;9.708;2022-08-19T09:56:19;12.50;;;7.88;;
48207;SDS011;33997;53.278;9.708;2022-08-19T09:58:46;11.18;;;7.03;;
48207;SDS011;33997;53.278;9.708;2022-08-19T10:01:17;11.30;;;7.50;;
48207;SDS011;33997;53.278;9.708;2022-08-19T10:03:47;12.25;;;7.68;;
48207;SDS011;33997;53.278;9.708;2022-08-19T10:06:15;13.20;;;8.77;;
48207;SDS011;33997;53.278;9.708;2022-08-19T10:08:41;11.57;;;7.65;;
48207;SDS011;33997;53.278;9.708;2022-08-19T10:11:07;9.77;;;7.18;;
48207;SDS011;33997;53.278;9.708;2022-08-19T10:13:34;12.05;;;7.80;;
48207;SDS011;33997;53.278;9.708;2022-08-19T10:16:12;14.35;;;7.82;;
48207;SDS011;33997;53.278;9.708;2022-08-19T10:18:43;11.88;;;7.63;;
48207;SDS011;33997;53.278;9.708;2022-08-19T10:23:37;11.98;;;7.53;;
48207;SDS011;33997;53.278;9.708;2022-08-19T10:26:05;11.18;;;7.47;;
48207;SDS011;33997;53.278;9.708;2022-08-19T10:28:32;9.23;;;6.72;;
48207;SDS011;33997;53.278;9.708;2022-08-19T10:31:06;9.73;;;6.45;;
48207;SDS011;33997;53.278;9.708;2022-08-19T10:33:33;9.93;;;7.40;;
48207;SDS011;33997;53.278;9.708;2022-08-19T10:36:03;10.25;;;6.93;;
48207;SDS011;33997;53.278;9.708;2022-08-19T10:38:33;13.07;;;7.15;;
48207;SDS011;33997;53.278;9.708;2022-08-19T10:41:12;9.68;;;6.55;;
48207;SDS011;33997;53.278;9.708;2022-08-19T10:43:43;12.98;;;7.35;;
48207;SDS011;33997;53.278;9.708;2022-08-19T10:46:10;11.45;;;7.32;;
48207;SDS011;33997;53.278;9.708;2022-08-19T10:48:39;10.82;;;7.28;;
48207;SDS011;33997;53.278;9.708;2022-08-19T10:51:05;11.98;;;7.32;;
48207;SDS011;33997;53.278;9.708;2022-08-19T10:53:50;9.48;;;6.82;;
48207;SDS011;33997;53.278;9.708;2022-08-19T10:56:16;11.57;;;7.20;;
48207;SDS011;33997;53.278;9.708;2022-08-19T10:59:01;10.48;;;8.07;;
48207;SDS011;33997;53.278;9.708;2022-08-19T11:01:28;9.65;;;7.30;;
48207;SDS011;33997;53.278;9.708;2022-08-19T11:03:55;13.13;;;7.25;;
48207;SDS011;33997;53.278;9.708;2022-08-19T11:06:22;10.65;;;7.35;;
48207;SDS011;33997;53.278;9.708;2022-08-19T11:08:49;10.43;;;7.57;;
48207;SDS011;33997;53.278;9.708;2022-08-19T11:11:15;11.13;;;8.00;;
48207;SDS011;33997;53.278;9.708;2022-08-19T11:13:41;13.18;;;7.25;;
48207;SDS011;33997;53.278;9.708;2022-08-19T11:16:11;11.98;;;6.63;;
48207;SDS011;33997;53.278;9.708;2022-08-19T11:18:40;9.68;;;7.05;;
48207;SDS011;33997;53.278;9.708;2022-08-19T11:21:08;13.98;;;7.72;;
48207;SDS011;33997;53.278;9.708;2022-08-19T11:23:36;9.23;;;7.18;;
48207;SDS011;33997;53.278;9.708;2022-08-19T11:26:02;10.15;;;6.47;;
48207;SDS011;33997;53.278;9.708;2022-08-19T11:28:27;8.35;;;6.45;;
48207;SDS011;33997;53.278;9.708;2022-08-19T11:30:53;11.65;;;6.32;;
48207;SDS011;33997;53.278;9.708;2022-08-19T11:33:19;8.02;;;6.32;;
48207;SDS011;33997;53.278;9.708;2022-08-19T11:35:44;7.88;;;5.53;;
48207;SDS011;33997;53.278;9.708;2022-08-19T11:38:09;10.05;;;7.07;;
48207;SDS011;33997;53.278;9.708;2022-08-19T11:40:36;10.40;;;7.15;;
48207;SDS011;33997;53.278;9.708;2022-08-19T11:43:02;10.48;;;7.00;;
48207;SDS011;33997;53.278;9.708;2022-08-19T11:45:28;9.77;;;6.80;;
48207;SDS011;33997;53.278;9.708;2022-08-19T11:47:55;9.13;;;6.18;;
48207;SDS011;33997;53.278;9.708;2022-08-19T11:50:20;9.55;;;6.75;;
48207;SDS011;33997;53.278;9.708;2022-08-19T11:52:48;11.30;;;6.57;;
48207;SDS011;33997;53.278;9.708;2022-08-19T11:55:14;10.05;;;6.40;;
48207;SDS011;33997;53.278;9.708;2022-08-19T11:57:40;11.63;;;6.47;;
48207;SDS011;33997;53.278;9.708;2022-08-19T12:00:07;8.23;;;5.60;;
48207;SDS011;33997;53.278;9.708;2022-08-19T12:02:34;9.40;;;7.10;;
48207;SDS011;33997;53.278;9.708;2022-08-19T12:04:59;9.02;;;5.95;;
48207;SDS011;33997;53.278;9.708;2022-08-19T12:07:27;10.40;;;6.18;;
48207;SDS011;33997;53.278;9.708;2022-08-19T12:09:53;8.70;;;5.93;;
48207;SDS011;33997;53.278;9.708;2022-08-19T12:12:19;10.57;;;6.80;;
48207;SDS011;33997;53.278;9.708;2022-08-19T12:14:44;10.40;;;6.60;;
48207;SDS011;33997;53.278;9.708;2022-08-19T12:17:11;9.32;;;6.63;;
48207;SDS011;33997;53.278;9.708;2022-08-19T12:19:38;9.25;;;6.60;;
48207;SDS011;33997;53.278;9.708;2022-08-19T12:22:04;8.65;;;5.95;;
48207;SDS011;33997;53.278;9.708;2022-08-19T12:24:31;9.23;;;6.40;;
48207;SDS011;33997;53.278;9.708;2022-08-19T12:26:58;8.52;;;5.20;;
48207;SDS011;33997;53.278;9.708;2022-08-19T12:29:26;7.32;;;5.28;;
48207;SDS011;33997;53.278;9.708;2022-08-19T12:31:54;7.78;;;5.20;;
48207;SDS011;33997;53.278;9.708;2022-08-19T12:34:26;9.57;;;5.25;;
48207;SDS011;33997;53.278;9.708;2022-08-19T12:36:55;6.63;;;4.90;;
48207;SDS011;33997;53.278;9.708;2022-08-19T12:39:25;7.43;;;5.18;;
48207;SDS011;33997;53.278;9.708;2022-08-19T12:41:51;8.45;;;5.70;;
48207;SDS011;33997;53.278;9.708;2022-08-19T12:44:17;9.02;;;5.90;;
48207;SDS011;33997;53.278;9.708;2022-08-19T12:46:42;8.45;;;5.95;;
48207;SDS011;33997;53.278;9.708;2022-08-19T12:49:08;10.32;;;6.45;;
48207;SDS011;33997;53.278;9.708;2022-08-19T12:51:34;8.10;;;5.22;;
48207;SDS011;33997;53.278;9.708;2022-08-19T12:54:00;9.45;;;6.20;;
48207;SDS011;33997;53.278;9.708;2022-08-19T12:56:28;8.25;;;4.88;;
48207;SDS011;33997;53.278;9.708;2022-08-19T12:58:54;7.22;;;5.45;;
48207;SDS011;33997;53.278;9.708;2022-08-19T13:01:19;8.85;;;6.00;;
48207;SDS011;33997;53.278;9.708;2022-08-19T13:03:45;7.65;;;5.65;;
48207;SDS011;33997;53.278;9.708;2022-08-19T13:06:11;9.00;;;5.55;;
48207;SDS011;33997;53.278;9.708;2022-08-19T13:08:37;7.60;;;5.07;;
48207;SDS011;33997;53.278;9.708;2022-08-19T13:11:10;5.90;;;4.60;;
48207;SDS011;33997;53.278;9.708;2022-08-19T13:13:41;7.63;;;5.20;;
48207;SDS011;33997;53.278;9.708;2022-08-19T13:16:09;7.75;;;5.90;;
48207;SDS011;33997;53.278;9.708;2022-08-19T13:18:36;8.38;;;5.45;;
48207;SDS011;33997;53.278;9.708;2022-08-19T13:21:03;7.10;;;4.97;;
48207;SDS011;33997;53.278;9.708;2022-08-19T13:23:29;7.07;;;4.53;;
48207;SDS011;33997;53.278;9.708;2022-08-19T13:25:56;6.85;;;4.68;;
48207;SDS011;33997;53.278;9.708;2022-08-19T13:28:26;6.95;;;4.90;;
48207;SDS011;33997;53.278;9.708;2022-08-19T13:31:14;7.28;;;4.80;;
48207;SDS011;33997;53.278;9.708;2022-08-19T13:33:59;6.75;;;4.80;;
48207;SDS011;33997;53.278;9.708;2022-08-19T13:36:26;7.18;;;5.63;;
48207;SDS011;33997;53.278;9.708;2022-08-19T13:38:51;9.00;;;5.95;;
48207;SDS011;33997;53.278;9.708;2022-08-19T13:41:18;8.52;;;4.90;;
48207;SDS011;33997;53.278;9.708;2022-08-19T13:43:44;6.55;;;4.53;;
48207;SDS011;33997;53.278;9.708;2022-08-19T13:46:10;9.23;;;5.15;;
48207;SDS011;33997;53.278;9.708;2022-08-19T13:48:39;7.07;;;4.20;;
48207;SDS011;33997;53.278;9.708;2022-08-19T13:51:08;9.55;;;5.47;;
48207;SDS011;33997;53.278;9.708;2022-08-19T13:53:35;7.30;;;4.55;;
48207;SDS011;33997;53.278;9.708;2022-08-19T13:56:06;7.60;;;4.97;;
48207;SDS011;33997;53.278;9.708;2022-08-19T13:58:36;7.00;;;4.97;;
48207;SDS011;33997;53.278;9.708;2022-08-19T14:01:02;6.43;;;4.53;;
48207;SDS011;33997;53.278;9.708;2022-08-19T14:03:28;6.55;;;4.75;;
48207;SDS011;33997;53.278;9.708;2022-08-19T14:05:54;8.48;;;5.70;;
48207;SDS011;33997;53.278;9.708;2022-08-19T14:08:20;7.75;;;4.72;;
48207;SDS011;33997;53.278;9.708;2022-08-19T14:10:45;6.63;;;4.00;;
48207;SDS011;33997;53.278;9.708;2022-08-19T14:13:14;7.90;;;4.22;;
48207;SDS011;33997;53.278;9.708;2022-08-19T14:15:44;7.25;;;4.70;;
48207;SDS011;33997;53.278;9.708;2022-08-19T14:18:10;8.00;;;4.00;;
48207;SDS011;33997;53.278;9.708;2022-08-19T14:20:36;7.22;;;4.50;;
48207;SDS011;33997;53.278;9.708;2022-08-19T14:23:02;8.13;;;4.68;;
48207;SDS011;33997;53.278;9.708;2022-08-19T14:25:30;6.88;;;4.88;;
48207;SDS011;33997;53.278;9.708;2022-08-19T14:27:56;7.68;;;4.03;;
48207;SDS011;33997;53.278;9.708;2022-08-19T14:30:23;8.57;;;4.88;;
48207;SDS011;33997;53.278;9.708;2022-08-19T14:32:53;5.95;;;4.70;;
48207;SDS011;33997;53.278;9.708;2022-08-19T14:35:19;5.90;;;4.00;;
48207;SDS011;33997;53.278;9.708;2022-08-19T14:37:46;7.88;;;4.85;;
48207;SDS011;33997;53.278;9.708;2022-08-19T14:40:13;6.00;;;4.07;;
48207;SDS011;33997;53.278;9.708;2022-08-19T14:42:41;7.93;;;5.60;;
48207;SDS011;33997;53.278;9.708;2022-08-19T14:45:07;6.72;;;4.90;;
48207;SDS011;33997;53.278;9.708;2022-08-19T14:47:34;6.88;;;4.22;;
48207;SDS011;33997;53.278;9.708;2022-08-19T14:49:59;6.45;;;4.28;;
48207;SDS011;33997;53.278;9.708;2022-08-19T14:52:25;6.72;;;4.60;;
48207;SDS011;33997;53.278;9.708;2022-08-19T14:54:51;6.53;;;4.53;;
48207;SDS011;33997;53.278;9.708;2022-08-19T14:57:16;8.10;;;5.00;;
48207;SDS011;33997;53.278;9.708;2022-08-19T14:59:42;7.72;;;4.90;;
48207;SDS011;33997;53.278;9.708;2022-08-19T15:02:08;6.22;;;3.80;;
48207;SDS011;33997;53.278;9.708;2022-08-19T15:04:34;5.57;;;3.63;;
48207;SDS011;33997;53.278;9.708;2022-08-19T15:07:00;6.53;;;3.65;;
48207;SDS011;33997;53.278;9.708;2022-08-19T15:09:29;5.88;;;4.43;;
48207;SDS011;33997;53.278;9.708;2022-08-19T15:11:55;6.70;;;4.75;;